Terminal Aerodrome Forecast
Issued by NWS

Home | Current Version | Previous Version | Text Only | Print | Product List | Glossary On
Versions: 1 2 3 4 5 6 7 8 9 10 11 12 13 14 15 16 17 18 19 20 21
000
FTUS45 KGJT 021740
TAFVEL
TAF
KVEL 021740Z 0218/0318 08003KT P6SM SCT100 BKN150
     FM022200 20006KT P6SM SCT100 BKN150
     FM030100 26007KT P6SM VCTS BKN100CB
     FM030600 28005KT P6SM -SHRA VCTS SCT060CB OVC080=

USA.gov is the U.S. government's official web portal to all federal, state and local government web resources and services.